Time,TemperatureF,DewpointF,PressureIn,WindDirection,WindDirectionDegrees,WindSpeedMPH,WindSpeedGustMPH,Humidity,HourlyPrecipIn,Conditions,Clouds,dailyrainin,SoftwareType,DateUTC
2013-01-14 00:00:00,48.9,45.8,0.00,East,92,0.0,0.0,89,0.00,,---,0.00,VWS V14.01,2013-01-14 05:00:00,
2013-01-14 00:01:00,50.5,47.7,0.00,SSW,213,2.7,2.7,90,0.00,,---,0.00,VWS V14.01,2013-01-14 05:01:00,
2013-01-14 00:04:00,51.1,48.5,0.00,SSW,213,2.7,2.7,91,0.00,,---,0.00,VWS V14.01,2013-01-14 05:04:00,
2013-01-14 00:09:00,51.1,48.5,0.00,ESE,106,0.0,0.0,91,0.00,,---,0.00,VWS V14.01,2013-01-14 05:09:00,
2013-01-14 00:14:00,51.1,48.5,0.00,SSE,166,2.7,2.7,91,0.00,,---,0.00,VWS V14.01,2013-01-14 05:14:00,
2013-01-14 00:19:00,51.3,49.0,0.00,ESE,113,0.0,0.0,92,0.00,,---,0.00,VWS V14.01,2013-01-14 05:19:00,
2013-01-14 00:24:00,51.3,49.0,0.00,ESE,113,0.0,0.0,92,0.00,,---,0.00,VWS V14.01,2013-01-14 05:24:00,
2013-01-14 00:29:00,49.8,47.3,0.00,ESE,113,0.0,0.0,91,0.00,,---,0.00,VWS V14.01,2013-01-14 05:29:00,
2013-01-14 00:34:00,49.8,47.3,0.00,ESE,113,0.0,0.0,91,0.00,,---,0.00,VWS V14.01,2013-01-14 05:34:00,
2013-01-14 00:39:00,49.8,47.3,0.00,ESE,113,0.0,0.0,91,0.00,,---,0.00,VWS V14.01,2013-01-14 05:39:00,
2013-01-14 00:44:00,49.8,47.3,0.00,ESE,113,0.0,0.0,91,0.00,,---,0.00,VWS V14.01,2013-01-14 05:44:00,
2013-01-14 00:49:00,46.4,43.3,0.00,ESE,113,0.0,0.0,89,0.00,,---,0.00,VWS V14.01,2013-01-14 05:49:00,
2013-01-14 00:54:00,45.1,42.1,0.00,ESE,113,0.0,0.0,89,0.00,,---,0.00,VWS V14.01,2013-01-14 05:54:00,
2013-01-14 00:59:00,44.8,41.7,0.00,ESE,113,0.0,0.0,89,0.00,,---,0.00,VWS V14.01,2013-01-14 05:59:00,
2013-01-14 01:04:00,44.1,41.0,0.00,ESE,113,0.0,0.0,89,0.00,,---,0.00,VWS V14.01,2013-01-14 06:04:00,
2013-01-14 01:09:00,43.9,40.8,0.00,ESE,113,0.0,0.0,89,0.00,,---,0.00,VWS V14.01,2013-01-14 06:09:00,
2013-01-14 01:14:00,43.5,40.8,0.00,ESE,113,0.0,0.0,90,0.00,,---,0.00,VWS V14.01,2013-01-14 06:14:00,
2013-01-14 01:19:00,43.0,40.2,0.00,ESE,113,0.0,0.0,90,0.00,,---,0.00,VWS V14.01,2013-01-14 06:19:00,
2013-01-14 01:24:00,43.2,40.4,0.00,ESE,113,0.0,0.0,90,0.00,,---,0.00,VWS V14.01,2013-01-14 06:24:00,
2013-01-14 01:29:00,43.2,40.4,0.00,ESE,113,0.0,0.0,90,0.00,,---,0.00,VWS V14.01,2013-01-14 06:29:00,
2013-01-14 01:34:00,43.0,40.2,0.00,ESE,113,0.0,0.0,90,0.00,,---,0.00,VWS V14.01,2013-01-14 06:34:00,
2013-01-14 01:39:00,42.4,39.7,0.00,ESE,113,0.0,0.0,90,0.00,,---,0.00,VWS V14.01,2013-01-14 06:39:00,
2013-01-14 01:44:00,42.4,39.7,0.00,ESE,113,0.0,0.0,90,0.00,,---,0.00,VWS V14.01,2013-01-14 06:44:00,
2013-01-14 01:49:00,42.1,39.4,0.00,ESE,113,0.0,0.0,90,0.00,,---,0.00,VWS V14.01,2013-01-14 06:49:00,
2013-01-14 01:54:00,41.7,39.0,0.00,ESE,113,0.0,0.0,90,0.00,,---,0.00,VWS V14.01,2013-01-14 06:54:00,
2013-01-14 01:59:00,41.7,39.0,0.00,ESE,113,0.0,0.0,90,0.00,,---,0.00,VWS V14.01,2013-01-14 06:59:00,
2013-01-14 02:04:00,41.7,39.0,0.00,ESE,113,0.0,0.0,90,0.00,,---,0.00,VWS V14.01,2013-01-14 07:04:00,
2013-01-14 02:09:00,41.5,38.8,0.00,ESE,113,0.0,0.0,90,0.00,,---,0.00,VWS V14.01,2013-01-14 07:09:00,
2013-01-14 02:14:00,41.4,38.7,0.00,ESE,113,0.0,0.0,90,0.00,,---,0.00,VWS V14.01,2013-01-14 07:14:00,
2013-01-14 02:19:00,41.2,38.2,0.00,ESE,113,0.0,0.0,89,0.00,,---,0.00,VWS V14.01,2013-01-14 07:19:00,
2013-01-14 02:24:00,41.4,38.4,0.00,ESE,113,0.0,0.0,89,0.00,,---,0.00,VWS V14.01,2013-01-14 07:24:00,
2013-01-14 02:29:00,41.4,38.7,0.00,ESE,113,0.0,0.0,90,0.00,,---,0.00,VWS V14.01,2013-01-14 07:29:00,
2013-01-14 02:34:00,41.4,38.7,0.00,ESE,113,0.0,0.0,90,0.00,,---,0.00,VWS V14.01,2013-01-14 07:34:00,
2013-01-14 02:39:00,41.2,38.2,0.00,ESE,113,0.0,0.0,89,0.00,,---,0.00,VWS V14.01,2013-01-14 07:39:00,
2013-01-14 02:44:00,41.2,38.2,0.00,ESE,113,0.0,0.0,89,0.00,,---,0.00,VWS V14.01,2013-01-14 07:44:00,
2013-01-14 02:49:00,41.2,38.2,0.00,ESE,113,0.0,0.0,89,0.00,,---,0.00,VWS V14.01,2013-01-14 07:49:00,
2013-01-14 02:54:00,41.2,38.2,0.00,ESE,113,0.0,0.0,89,0.00,,---,0.00,VWS V14.01,2013-01-14 07:54:00,
2013-01-14 02:59:00,41.2,38.2,0.00,ESE,113,0.0,0.0,89,0.00,,---,0.00,VWS V14.01,2013-01-14 07:59:00,
2013-01-14 03:04:00,41.4,38.4,0.00,ESE,113,0.0,0.0,89,0.00,,---,0.00,VWS V14.01,2013-01-14 08:04:00,
2013-01-14 03:09:00,41.4,38.4,0.00,SSE,148,0.0,0.0,89,0.00,,---,0.00,VWS V14.01,2013-01-14 08:09:00,
2013-01-14 03:14:00,41.7,38.7,0.00,SSE,148,0.0,0.0,89,0.00,,---,0.00,VWS V14.01,2013-01-14 08:14:00,
2013-01-14 03:19:00,41.5,38.5,0.00,SSE,148,0.0,0.0,89,0.00,,---,0.00,VWS V14.01,2013-01-14 08:19:00,
2013-01-14 03:24:00,41.4,38.4,0.00,SSE,148,0.0,0.0,89,0.00,,---,0.00,VWS V14.01,2013-01-14 08:24:00,
2013-01-14 03:29:00,41.2,38.2,0.00,SSE,148,0.0,0.0,89,0.00,,---,0.00,VWS V14.01,2013-01-14 08:29:00,
2013-01-14 03:34:00,41.2,38.2,0.00,SSE,148,0.0,0.0,89,0.00,,---,0.00,VWS V14.01,2013-01-14 08:34:00,
2013-01-14 03:39:00,41.5,38.5,0.00,SE,129,0.0,0.0,89,0.00,,---,0.00,VWS V14.01,2013-01-14 08:39:00,
2013-01-14 03:44:00,41.5,38.5,0.00,SE,129,0.0,0.0,89,0.00,,---,0.00,VWS V14.01,2013-01-14 08:44:00,
2013-01-14 03:49:00,42.4,39.7,0.00,SE,129,0.0,0.0,90,0.00,,---,0.00,VWS V14.01,2013-01-14 08:49:00,
2013-01-14 03:54:00,42.3,39.5,0.00,NW,316,0.0,0.0,90,0.00,,---,0.00,VWS V14.01,2013-01-14 08:54:00,
2013-01-14 03:59:00,42.1,39.1,0.00,NW,316,0.0,0.0,89,0.00,,---,0.00,VWS V14.01,2013-01-14 08:59:00,
2013-01-14 04:04:00,41.7,38.7,0.00,NW,316,0.0,0.0,89,0.00,,---,0.00,VWS V14.01,2013-01-14 09:04:00,
2013-01-14 04:09:00,41.7,38.7,0.00,NW,316,0.0,0.0,89,0.00,,---,0.00,VWS V14.01,2013-01-14 09:09:00,
2013-01-14 04:14:00,42.8,39.8,0.00,South,188,0.0,0.0,89,0.00,,---,0.00,VWS V14.01,2013-01-14 09:14:00,
2013-01-14 04:19:00,42.8,39.8,0.00,ENE,68,0.0,0.0,89,0.00,,---,0.00,VWS V14.01,2013-01-14 09:19:00,
2013-01-14 04:24:00,44.8,42.3,0.00,ENE,68,0.0,0.0,91,0.00,,---,0.00,VWS V14.01,2013-01-14 09:24:00,
2013-01-14 04:29:00,48.4,46.5,0.00,ESE,113,0.0,0.0,93,0.00,,---,0.00,VWS V14.01,2013-01-14 09:29:00,
2013-01-14 04:34:00,48.4,46.5,0.00,East,100,0.0,0.0,93,0.00,,---,0.00,VWS V14.01,2013-01-14 09:34:00,
2013-01-14 04:39:00,48.9,47.0,0.00,SSE,152,0.0,0.0,93,0.00,,---,0.00,VWS V14.01,2013-01-14 09:39:00,
2013-01-14 04:44:00,51.4,49.5,0.00,ESE,119,4.0,4.0,93,0.00,,---,0.00,VWS V14.01,2013-01-14 09:44:00,
2013-01-14 04:49:00,51.4,49.5,0.00,SW,234,2.2,2.2,93,0.00,,---,0.00,VWS V14.01,2013-01-14 09:49:00,
2013-01-14 04:54:00,51.4,49.5,0.00,ESE,113,5.4,5.4,93,0.00,,---,0.00,VWS V14.01,2013-01-14 09:54:00,
2013-01-14 04:59:00,51.8,49.8,0.00,SE,130,2.2,2.2,93,0.00,,---,0.00,VWS V14.01,2013-01-14 09:59:00,
2013-01-14 05:04:00,52.5,50.6,0.00,SE,127,2.2,2.2,93,0.00,,---,0.00,VWS V14.01,2013-01-14 10:04:00,
2013-01-14 05:09:00,52.5,50.6,0.00,SE,131,7.6,8.3,93,0.00,,---,0.00,VWS V14.01,2013-01-14 10:09:00,
2013-01-14 05:14:00,52.5,50.3,0.00,ENE,77,3.1,3.1,92,0.00,,---,0.00,VWS V14.01,2013-01-14 10:14:00,
2013-01-14 05:19:00,52.5,50.3,0.00,SSE,165,4.0,4.9,92,0.00,,---,0.00,VWS V14.01,2013-01-14 10:19:00,
2013-01-14 05:24:00,53.1,49.9,0.00,SSE,165,4.0,4.0,89,0.00,,---,0.00,VWS V14.01,2013-01-14 10:24:00,
2013-01-14 05:29:00,53.1,49.0,0.00,SE,129,5.8,5.8,86,0.00,,---,0.00,VWS V14.01,2013-01-14 10:29:00,
2013-01-14 05:34:00,52.9,48.5,0.00,SSW,193,3.6,3.6,85,0.00,,---,0.00,VWS V14.01,2013-01-14 10:34:00,
2013-01-14 05:39:00,52.5,47.2,0.00,West,280,2.7,2.7,82,0.00,,---,0.00,VWS V14.01,2013-01-14 10:39:00,
2013-01-14 05:44:00,52.2,46.5,0.00,WNW,287,2.7,2.7,81,0.00,,---,0.00,VWS V14.01,2013-01-14 10:44:00,
2013-01-14 05:49:00,51.6,45.7,0.00,South,190,6.3,6.3,80,0.00,,---,0.00,VWS V14.01,2013-01-14 10:49:00,
2013-01-14 05:54:00,51.4,45.5,0.00,SW,226,4.9,4.9,80,0.00,,---,0.00,VWS V14.01,2013-01-14 10:54:00,
2013-01-14 05:59:00,50.7,45.1,0.00,SW,226,4.9,4.9,81,0.00,,---,0.00,VWS V14.01,2013-01-14 10:59:00,
2013-01-14 06:04:00,50.4,44.8,0.00,NW,304,2.2,2.2,81,0.00,,---,0.00,VWS V14.01,2013-01-14 11:04:00,
2013-01-14 06:09:00,49.8,44.5,0.00,East,79,6.3,6.3,82,0.00,,---,0.00,VWS V14.01,2013-01-14 11:09:00,
2013-01-14 06:14:00,49.8,44.5,0.00,SE,127,3.1,9.6,82,0.00,,---,0.00,VWS V14.01,2013-01-14 11:14:00,
2013-01-14 06:19:00,49.1,42.5,0.00,South,189,6.3,6.3,78,0.00,,---,0.00,VWS V14.01,2013-01-14 11:19:00,
2013-01-14 06:24:00,48.9,42.0,0.00,ENE,76,5.4,5.4,77,0.00,,---,0.00,VWS V14.01,2013-01-14 11:24:00,
2013-01-14 06:29:00,48.7,41.5,0.00,West,271,3.6,3.6,76,0.00,,---,0.00,VWS V14.01,2013-01-14 11:29:00,
2013-01-14 06:34:00,48.6,41.3,0.00,SSE,151,5.4,5.4,76,0.00,,---,0.00,VWS V14.01,2013-01-14 11:34:00,
2013-01-14 06:39:00,48.4,40.8,0.00,WSW,245,3.6,3.6,75,0.00,,---,0.00,VWS V14.01,2013-01-14 11:39:00,
2013-01-14 06:44:00,48.4,40.8,0.00,SSE,158,4.0,4.0,75,0.00,,---,0.00,VWS V14.01,2013-01-14 11:44:00,
2013-01-14 06:49:00,48.0,40.5,0.00,West,274,3.6,3.6,75,0.00,,---,0.00,VWS V14.01,2013-01-14 11:49:00,
2013-01-14 06:54:00,48.0,40.5,0.00,SW,220,8.1,8.1,75,0.00,,---,0.00,VWS V14.01,2013-01-14 11:54:00,
2013-01-14 06:59:00,47.5,39.3,0.00,SW,214,2.7,2.7,73,0.00,,---,0.00,VWS V14.01,2013-01-14 11:59:00,
2013-01-14 07:04:00,46.9,38.0,0.00,SE,137,4.0,4.0,71,0.00,,---,0.00,VWS V14.01,2013-01-14 12:04:00,
2013-01-14 07:09:00,46.9,38.0,0.00,WNW,285,2.2,2.2,71,0.00,,---,0.00,VWS V14.01,2013-01-14 12:09:00,
2013-01-14 07:14:00,46.6,37.7,0.00,WSW,252,5.4,5.4,71,0.00,,---,0.00,VWS V14.01,2013-01-14 12:14:00,
2013-01-14 07:19:00,46.6,37.7,0.00,ESE,117,7.6,7.6,71,0.00,,---,0.00,VWS V14.01,2013-01-14 12:19:00,
2013-01-14 07:24:00,46.2,37.0,0.00,SSE,147,0.0,0.0,70,0.00,,---,0.00,VWS V14.01,2013-01-14 12:24:00,
2013-01-14 07:29:00,46.2,37.0,0.00,SW,234,2.7,2.7,70,0.00,,---,0.00,VWS V14.01,2013-01-14 12:29:00,
2013-01-14 07:34:00,46.2,37.0,0.00,SW,234,2.7,2.7,70,0.00,,---,0.00,VWS V14.01,2013-01-14 12:34:00,
2013-01-14 07:39:00,45.3,35.4,0.00,NNW,346,3.6,3.6,68,0.00,,---,0.00,VWS V14.01,2013-01-14 12:39:00,
2013-01-14 07:44:00,45.3,35.8,0.00,NNW,346,3.6,3.6,69,0.00,,---,0.00,VWS V14.01,2013-01-14 12:44:00,
2013-01-14 07:49:00,44.8,34.9,0.00,ENE,63,0.0,0.0,68,0.00,,---,0.00,VWS V14.01,2013-01-14 12:49:00,
2013-01-14 07:54:00,44.8,34.9,0.00,SW,224,3.6,3.6,68,0.00,,---,0.00,VWS V14.01,2013-01-14 12:54:00,
2013-01-14 07:59:00,44.2,34.7,0.00,SW,224,3.6,3.6,69,0.00,,---,0.00,VWS V14.01,2013-01-14 12:59:00,
2013-01-14 08:04:00,44.1,34.6,0.00,NE,42,2.7,2.7,69,0.00,,---,0.00,VWS V14.01,2013-01-14 13:04:00,
2013-01-14 08:09:00,43.5,33.7,0.00,NE,42,2.7,2.7,68,0.00,,---,0.00,VWS V14.01,2013-01-14 13:09:00,
2013-01-14 08:14:00,42.8,33.3,0.00,SW,236,5.4,5.4,69,0.00,,---,0.00,VWS V14.01,2013-01-14 13:14:00,
2013-01-14 08:19:00,42.8,33.3,0.00,SE,128,4.0,4.0,69,0.00,,---,0.00,VWS V14.01,2013-01-14 13:19:00,
2013-01-14 08:24:00,42.1,33.0,0.00,SW,225,3.1,3.1,70,0.00,,---,0.00,VWS V14.01,2013-01-14 13:24:00,
2013-01-14 08:29:00,41.7,32.3,0.00,North,357,0.0,0.0,69,0.00,,---,0.00,VWS V14.01,2013-01-14 13:29:00,
2013-01-14 08:34:00,41.2,30.7,0.00,SW,232,6.3,6.3,66,0.00,,---,0.00,VWS V14.01,2013-01-14 13:34:00,
2013-01-14 08:39:00,40.8,29.2,0.00,ENE,65,8.1,8.1,63,0.00,,---,0.00,VWS V14.01,2013-01-14 13:39:00,
2013-01-14 08:44:00,40.8,29.2,0.00,ENE,65,8.1,8.1,63,0.00,,---,0.00,VWS V14.01,2013-01-14 13:44:00,
2013-01-14 08:49:00,40.3,28.3,0.00,NNE,26,7.6,7.6,62,0.00,,---,0.00,VWS V14.01,2013-01-14 13:49:00,
2013-01-14 08:54:00,40.1,28.5,0.00,SW,217,4.5,4.5,63,0.00,,---,0.00,VWS V14.01,2013-01-14 13:54:00,
2013-01-14 08:59:00,40.1,28.5,0.00,ESE,106,4.0,4.0,63,0.00,,---,0.00,VWS V14.01,2013-01-14 13:59:00,
2013-01-14 09:04:00,39.2,26.9,0.00,SSE,163,5.8,5.8,61,0.00,,---,0.00,VWS V14.01,2013-01-14 14:04:00,
2013-01-14 09:09:00,39.0,27.1,0.00,West,265,3.6,3.6,62,0.00,,---,0.00,VWS V14.01,2013-01-14 14:09:00,
2013-01-14 09:14:00,38.7,26.8,0.00,West,265,3.6,3.6,62,0.00,,---,0.00,VWS V14.01,2013-01-14 14:14:00,
2013-01-14 09:19:00,38.3,26.8,0.00,SW,221,6.3,6.3,63,0.00,,---,0.00,VWS V14.01,2013-01-14 14:19:00,
2013-01-14 09:24:00,38.3,26.8,0.00,SW,221,6.3,6.3,63,0.00,,---,0.00,VWS V14.01,2013-01-14 14:24:00,
2013-01-14 09:29:00,38.3,26.8,0.00,WSW,244,5.4,5.4,63,0.00,,---,0.00,VWS V14.01,2013-01-14 14:29:00,
2013-01-14 09:34:00,38.1,26.6,0.00,WSW,244,5.4,5.4,63,0.00,,---,0.00,VWS V14.01,2013-01-14 14:34:00,
2013-01-14 09:39:00,38.1,26.6,0.00,WSW,244,5.4,5.4,63,0.00,,---,0.00,VWS V14.01,2013-01-14 14:39:00,
2013-01-14 09:44:00,38.1,27.4,0.00,West,275,5.4,5.4,65,0.00,,---,0.00,VWS V14.01,2013-01-14 14:44:00,
2013-01-14 09:49:00,38.1,27.4,0.00,SW,222,5.8,5.8,65,0.00,,---,0.00,VWS V14.01,2013-01-14 14:49:00,
2013-01-14 09:54:00,38.1,27.4,0.00,ESE,115,4.0,4.0,65,0.00,,---,0.00,VWS V14.01,2013-01-14 14:54:00,
2013-01-14 09:59:00,38.3,27.6,0.00,SE,132,7.2,7.2,65,0.00,,---,0.00,VWS V14.01,2013-01-14 14:59:00,
2013-01-14 10:04:00,38.3,27.6,0.00,NNE,32,4.0,4.0,65,0.00,,---,0.00,VWS V14.01,2013-01-14 15:04:00,
2013-01-14 10:09:00,37.9,26.9,0.00,SSW,213,4.5,4.5,64,0.00,,---,0.00,VWS V14.01,2013-01-14 15:09:00,
2013-01-14 10:14:00,37.9,26.9,0.00,South,186,2.7,2.7,64,0.00,,---,0.00,VWS V14.01,2013-01-14 15:14:00,
2013-01-14 10:19:00,37.9,26.5,0.00,East,93,0.0,0.0,63,0.00,,---,0.00,VWS V14.01,2013-01-14 15:19:00,
2013-01-14 10:24:00,37.9,26.5,0.00,ENE,65,3.6,3.6,63,0.00,,---,0.00,VWS V14.01,2013-01-14 15:24:00,
2013-01-14 10:29:00,37.4,26.7,0.00,WNW,295,3.6,3.6,65,0.00,,---,0.00,VWS V14.01,2013-01-14 15:29:00,
2013-01-14 10:34:00,37.0,26.4,0.00,NW,310,4.0,4.0,65,0.00,,---,0.00,VWS V14.01,2013-01-14 15:34:00,
2013-01-14 10:39:00,37.0,26.4,0.00,West,277,3.6,3.6,65,0.00,,---,0.00,VWS V14.01,2013-01-14 15:39:00,
2013-01-14 10:44:00,35.8,25.5,0.00,NNW,329,2.7,2.7,66,0.00,,---,0.00,VWS V14.01,2013-01-14 15:44:00,
2013-01-14 10:49:00,35.6,24.6,0.00,SSW,205,3.1,3.1,64,0.00,,---,0.00,VWS V14.01,2013-01-14 15:49:00,
2013-01-14 10:54:00,35.1,23.4,0.00,West,268,3.1,3.1,62,0.00,,---,0.00,VWS V14.01,2013-01-14 15:54:00,
2013-01-14 10:59:00,34.9,22.8,0.00,West,280,3.1,3.1,61,0.00,,---,0.00,VWS V14.01,2013-01-14 15:59:00,
2013-01-14 11:04:00,34.9,22.8,0.00,West,280,2.7,2.7,61,0.00,,---,0.00,VWS V14.01,2013-01-14 16:04:00,
2013-01-14 11:09:00,34.9,22.4,0.00,SSE,152,4.0,4.9,60,0.00,,---,0.00,VWS V14.01,2013-01-14 16:09:00,
2013-01-14 11:14:00,34.9,22.4,0.00,South,173,7.6,7.6,60,0.00,,---,0.00,VWS V14.01,2013-01-14 16:14:00,
2013-01-14 11:19:00,35.1,20.5,0.00,SW,217,10.5,10.5,55,0.00,,---,0.00,VWS V14.01,2013-01-14 16:19:00,
2013-01-14 11:24:00,35.8,19.9,0.00,SE,146,2.7,2.7,52,0.00,,---,0.00,VWS V14.01,2013-01-14 16:24:00,
2013-01-14 11:29:00,35.8,19.9,0.00,SW,232,5.8,5.8,52,0.00,,---,0.00,VWS V14.01,2013-01-14 16:29:00,
2013-01-14 11:35:00,37.2,18.9,0.00,SW,232,5.8,5.8,47,0.00,,---,0.00,VWS V14.01,2013-01-14 16:35:00,
2013-01-14 11:40:00,36.3,18.0,0.00,South,170,11.4,11.4,47,0.00,,---,0.00,VWS V14.01,2013-01-14 16:40:00,
2013-01-14 11:45:00,36.3,18.0,0.00,East,91,3.6,3.6,47,0.00,,---,0.00,VWS V14.01,2013-01-14 16:45:00,
2013-01-14 11:50:00,36.9,18.5,0.00,South,191,8.7,8.7,47,0.00,,---,0.00,VWS V14.01,2013-01-14 16:50:00,
2013-01-14 11:55:00,36.9,18.5,0.00,South,191,8.7,8.7,47,0.00,,---,0.00,VWS V14.01,2013-01-14 16:55:00,
2013-01-14 12:00:00,37.0,17.7,0.00,WSW,241,7.6,7.6,45,0.00,,---,0.00,VWS V14.01,2013-01-14 17:00:00,
2013-01-14 12:05:00,37.0,17.7,0.00,NW,317,4.9,4.9,45,0.00,,---,0.00,VWS V14.01,2013-01-14 17:05:00,
2013-01-14 12:10:00,36.3,18.0,0.00,NW,317,4.9,4.9,47,0.00,,---,0.00,VWS V14.01,2013-01-14 17:10:00,
2013-01-14 12:15:00,36.0,18.2,0.00,East,92,4.5,4.5,48,0.00,,---,0.00,VWS V14.01,2013-01-14 17:15:00,
2013-01-14 12:20:00,35.8,18.5,0.00,SW,228,5.8,5.8,49,0.00,,---,0.00,VWS V14.01,2013-01-14 17:20:00,
2013-01-14 12:25:00,35.6,18.8,0.00,ESE,113,2.2,9.6,50,0.00,,---,0.00,VWS V14.01,2013-01-14 17:25:00,
2013-01-14 12:30:00,35.6,18.8,0.00,South,190,5.4,5.4,50,0.00,,---,0.00,VWS V14.01,2013-01-14 17:30:00,
2013-01-14 12:35:00,35.8,16.5,0.00,NW,310,10.5,10.5,45,0.00,,---,0.00,VWS V14.01,2013-01-14 17:35:00,
2013-01-14 12:40:00,35.8,16.5,0.00,WSW,239,5.8,5.8,45,0.00,,---,0.00,VWS V14.01,2013-01-14 17:40:00,
2013-01-14 12:45:00,36.9,17.5,0.00,WSW,239,5.8,5.8,45,0.00,,---,0.00,VWS V14.01,2013-01-14 17:45:00,
2013-01-14 12:50:00,36.9,17.0,0.00,SE,135,6.3,6.3,44,0.00,,---,0.00,VWS V14.01,2013-01-14 17:50:00,
2013-01-14 12:55:00,36.9,17.0,0.00,SSW,193,8.3,8.3,44,0.00,,---,0.00,VWS V14.01,2013-01-14 17:55:00,
2013-01-14 13:00:00,35.6,16.4,0.00,SW,219,5.8,5.8,45,0.00,,---,0.00,VWS V14.01,2013-01-14 18:00:00,
2013-01-14 13:05:00,35.1,15.9,0.00,East,95,4.9,4.9,45,0.00,,---,0.00,VWS V14.01,2013-01-14 18:05:00,
2013-01-14 13:10:00,35.1,15.9,0.00,SW,232,3.1,3.1,45,0.00,,---,0.00,VWS V14.01,2013-01-14 18:10:00,
2013-01-14 13:15:00,35.6,16.4,0.00,SSW,209,3.6,3.6,45,0.00,,---,0.00,VWS V14.01,2013-01-14 18:15:00,
2013-01-14 13:20:00,36.5,17.2,0.00,WSW,240,2.7,2.7,45,0.00,,---,0.00,VWS V14.01,2013-01-14 18:20:00,
2013-01-14 13:25:00,35.2,16.0,0.00,South,190,5.8,5.8,45,0.00,,---,0.00,VWS V14.01,2013-01-14 18:25:00,
2013-01-14 13:30:00,35.4,15.7,0.00,NW,318,5.4,5.4,44,0.00,,---,0.00,VWS V14.01,2013-01-14 18:30:00,
2013-01-14 13:35:00,34.9,15.2,0.00,SW,225,2.7,5.4,44,0.00,,---,0.00,VWS V14.01,2013-01-14 18:35:00,
2013-01-14 13:40:00,34.9,15.2,0.00,NE,48,4.0,4.0,44,0.00,,---,0.00,VWS V14.01,2013-01-14 18:40:00,
2013-01-14 13:45:00,35.2,15.5,0.00,East,97,2.2,2.2,44,0.00,,---,0.00,VWS V14.01,2013-01-14 18:45:00,
2013-01-14 13:50:00,35.2,15.5,0.00,East,97,5.4,5.4,44,0.00,,---,0.00,VWS V14.01,2013-01-14 18:50:00,
2013-01-14 13:55:00,36.1,15.3,0.00,ESE,123,5.8,5.8,42,0.00,,---,0.00,VWS V14.01,2013-01-14 18:55:00,
2013-01-14 14:00:00,36.1,15.3,0.00,NE,47,0.0,0.0,42,0.00,,---,0.00,VWS V14.01,2013-01-14 19:00:00,
2013-01-14 14:05:00,36.1,15.3,0.00,North,0,4.9,4.9,42,0.00,,---,0.00,VWS V14.01,2013-01-14 19:05:00,
2013-01-14 14:10:00,35.1,15.4,0.00,South,178,3.1,4.9,44,0.00,,---,0.00,VWS V14.01,2013-01-14 19:10:00,
2013-01-14 14:15:00,35.1,15.4,0.00,ESE,106,2.7,2.7,44,0.00,,---,0.00,VWS V14.01,2013-01-14 19:15:00,
2013-01-14 14:20:00,34.5,14.3,0.00,East,87,10.1,10.1,43,0.00,,---,0.00,VWS V14.01,2013-01-14 19:20:00,
2013-01-14 14:25:00,34.5,14.3,0.00,SW,231,2.7,2.7,43,0.00,,---,0.00,VWS V14.01,2013-01-14 19:25:00,
2013-01-14 14:30:00,34.3,14.7,0.00,SW,216,4.9,4.9,44,0.00,,---,0.00,VWS V14.01,2013-01-14 19:30:00,
2013-01-14 14:35:00,34.3,14.7,0.00,NW,316,0.0,2.7,44,0.00,,---,0.00,VWS V14.01,2013-01-14 19:35:00,
2013-01-14 14:40:00,34.2,14.5,0.00,South,189,8.1,8.1,44,0.00,,---,0.00,VWS V14.01,2013-01-14 19:40:00,
2013-01-14 14:45:00,34.0,14.4,0.00,SE,144,2.7,2.7,44,0.00,,---,0.00,VWS V14.01,2013-01-14 19:45:00,
2013-01-14 14:50:00,34.2,14.5,0.00,SSE,159,5.4,5.4,44,0.00,,---,0.00,VWS V14.01,2013-01-14 19:50:00,
2013-01-14 14:55:00,34.2,14.0,0.00,NW,317,3.6,3.6,43,0.00,,---,0.00,VWS V14.01,2013-01-14 19:55:00,
2013-01-14 15:00:00,34.0,13.9,0.00,SE,134,6.3,6.3,43,0.00,,---,0.00,VWS V14.01,2013-01-14 20:00:00,
2013-01-14 15:05:00,34.0,13.9,0.00,ENE,58,3.1,6.3,43,0.00,,---,0.00,VWS V14.01,2013-01-14 20:05:00,
2013-01-14 15:10:00,33.8,13.7,0.00,SE,129,4.0,4.0,43,0.00,,---,0.00,VWS V14.01,2013-01-14 20:10:00,
2013-01-14 15:15:00,33.4,13.4,0.00,ESE,116,4.9,4.9,43,0.00,,---,0.00,VWS V14.01,2013-01-14 20:15:00,
2013-01-14 15:20:00,33.6,14.1,0.00,ESE,105,4.9,5.8,44,0.00,,---,0.00,VWS V14.01,2013-01-14 20:20:00,
2013-01-14 15:25:00,33.6,14.1,0.00,WSW,244,3.1,3.1,44,0.00,,---,0.00,VWS V14.01,2013-01-14 20:25:00,
2013-01-14 15:30:00,33.4,13.4,0.00,WSW,244,3.1,3.1,43,0.00,,---,0.00,VWS V14.01,2013-01-14 20:30:00,
2013-01-14 15:35:00,33.4,13.4,0.00,ESE,112,4.0,4.0,43,0.00,,---,0.00,VWS V14.01,2013-01-14 20:35:00,
2013-01-14 15:40:00,33.4,13.4,0.00,ESE,112,4.0,4.0,43,0.00,,---,0.00,VWS V14.01,2013-01-14 20:40:00,
2013-01-14 15:45:00,33.3,13.7,0.00,WNW,294,0.0,0.0,44,0.00,,---,0.00,VWS V14.01,2013-01-14 20:45:00,
2013-01-14 15:50:00,33.1,13.6,0.00,SSE,160,0.0,0.0,44,0.00,,---,0.00,VWS V14.01,2013-01-14 20:50:00,
2013-01-14 15:55:00,33.1,13.6,0.00,SSE,160,0.0,0.0,44,0.00,,---,0.00,VWS V14.01,2013-01-14 20:55:00,
2013-01-14 16:00:00,32.9,12.9,0.00,East,93,2.2,2.2,43,0.00,,---,0.00,VWS V14.01,2013-01-14 21:00:00,
2013-01-14 16:05:00,32.9,12.9,0.00,WSW,249,2.2,2.2,43,0.00,,---,0.00,VWS V14.01,2013-01-14 21:05:00,
2013-01-14 16:10:00,32.7,12.7,0.00,WSW,249,2.2,2.2,43,0.00,,---,0.00,VWS V14.01,2013-01-14 21:10:00,
2013-01-14 16:15:00,32.7,12.7,0.00,SSW,206,2.7,2.7,43,0.00,,---,0.00,VWS V14.01,2013-01-14 21:15:00,
2013-01-14 16:20:00,32.7,12.7,0.00,SE,140,3.6,3.6,43,0.00,,---,0.00,VWS V14.01,2013-01-14 21:20:00,
2013-01-14 16:25:00,32.5,12.5,0.00,SSE,159,0.0,0.0,43,0.00,,---,0.00,VWS V14.01,2013-01-14 21:25:00,
2013-01-14 16:30:00,32.5,12.5,0.00,SW,214,0.0,0.0,43,0.00,,---,0.00,VWS V14.01,2013-01-14 21:30:00,
2013-01-14 16:35:00,32.5,13.1,0.00,WNW,293,3.1,3.1,44,0.00,,---,0.00,VWS V14.01,2013-01-14 21:35:00,
2013-01-14 16:40:00,32.5,13.1,0.00,SE,127,4.0,4.0,44,0.00,,---,0.00,VWS V14.01,2013-01-14 21:40:00,
2013-01-14 16:45:00,32.5,13.1,0.00,SSW,195,0.0,0.0,44,0.00,,---,0.00,VWS V14.01,2013-01-14 21:45:00,
2013-01-14 16:50:00,32.4,12.9,0.00,West,277,3.1,3.1,44,0.00,,---,0.00,VWS V14.01,2013-01-14 21:50:00,
2013-01-14 16:55:00,32.4,12.9,0.00,SSW,212,0.0,0.0,44,0.00,,---,0.00,VWS V14.01,2013-01-14 21:55:00,
2013-01-14 17:00:00,32.2,12.7,0.00,ESE,118,0.0,0.0,44,0.00,,---,0.00,VWS V14.01,2013-01-14 22:00:00,
2013-01-14 17:05:00,32.0,12.6,0.00,SSW,198,0.0,0.0,44,0.00,,---,0.00,VWS V14.01,2013-01-14 22:05:00,
2013-01-14 17:10:00,32.0,12.6,0.00,SE,128,4.0,4.0,44,0.00,,---,0.00,VWS V14.01,2013-01-14 22:10:00,
2013-01-14 17:15:00,32.0,12.6,0.00,West,261,3.1,3.1,44,0.00,,---,0.00,VWS V14.01,2013-01-14 22:15:00,
2013-01-14 17:20:00,32.0,12.1,0.00,West,259,0.0,0.0,43,0.00,,---,0.00,VWS V14.01,2013-01-14 22:20:00,
2013-01-14 17:25:00,31.8,12.4,0.00,West,259,0.0,0.0,44,0.00,,---,0.00,VWS V14.01,2013-01-14 22:25:00,
2013-01-14 17:30:00,31.8,12.4,0.00,SSE,153,3.6,3.6,44,0.00,,---,0.00,VWS V14.01,2013-01-14 22:30:00,
2013-01-14 17:35:00,31.8,12.4,0.00,NW,320,0.0,0.0,44,0.00,,---,0.00,VWS V14.01,2013-01-14 22:35:00,
2013-01-14 17:40:00,31.8,12.4,0.00,WNW,290,0.0,0.0,44,0.00,,---,0.00,VWS V14.01,2013-01-14 22:40:00,
2013-01-14 17:45:00,31.8,12.4,0.00,SE,143,0.0,0.0,44,0.00,,---,0.00,VWS V14.01,2013-01-14 22:45:00,
2013-01-14 17:50:00,31.8,12.4,0.00,ESE,120,2.7,2.7,44,0.00,,---,0.00,VWS V14.01,2013-01-14 22:50:00,
2013-01-14 17:55:00,31.8,12.4,0.00,ESE,109,0.0,0.0,44,0.00,,---,0.00,VWS V14.01,2013-01-14 22:55:00,
2013-01-14 18:00:00,31.6,12.2,0.00,ESE,109,0.0,0.0,44,0.00,,---,0.00,VWS V14.01,2013-01-14 23:00:00,
2013-01-14 18:05:00,31.6,12.2,0.00,North,350,5.4,5.4,44,0.00,,---,0.00,VWS V14.01,2013-01-14 23:05:00,
2013-01-14 18:10:00,31.5,12.1,0.00,South,178,2.2,2.2,44,0.00,,---,0.00,VWS V14.01,2013-01-14 23:10:00,
2013-01-14 18:15:00,31.5,12.1,0.00,NNW,334,3.1,3.1,44,0.00,,---,0.00,VWS V14.01,2013-01-14 23:15:00,
2013-01-14 18:20:00,31.5,12.1,0.00,NW,316,3.1,3.1,44,0.00,,---,0.00,VWS V14.01,2013-01-14 23:20:00,
2013-01-14 18:25:00,31.5,12.1,0.00,SSE,149,2.2,2.2,44,0.00,,---,0.00,VWS V14.01,2013-01-14 23:25:00,
2013-01-14 18:30:00,31.5,12.1,0.00,NNW,330,3.6,4.0,44,0.00,,---,0.00,VWS V14.01,2013-01-14 23:30:00,
2013-01-14 18:35:00,31.5,12.1,0.00,WNW,297,3.6,3.6,44,0.00,,---,0.00,VWS V14.01,2013-01-14 23:35:00,
2013-01-14 18:40:00,31.5,12.1,0.00,SSE,153,0.0,3.1,44,0.00,,---,0.00,VWS V14.01,2013-01-14 23:40:00,
2013-01-14 18:45:00,31.3,11.9,0.00,WNW,290,3.1,3.1,44,0.00,,---,0.00,VWS V14.01,2013-01-14 23:45:00,
2013-01-14 18:50:00,31.3,11.9,0.00,SE,140,2.7,2.7,44,0.00,,---,0.00,VWS V14.01,2013-01-14 23:50:00,
2013-01-14 18:55:00,31.1,11.8,0.00,SE,136,2.7,2.7,44,0.00,,---,0.00,VWS V14.01,2013-01-14 23:55:00,
2013-01-14 19:00:00,31.1,11.8,0.00,East,92,2.7,2.7,44,0.00,,---,0.00,VWS V14.01,2013-01-15 00:00:00,
2013-01-14 19:05:00,31.1,11.8,0.00,NE,43,2.2,2.2,44,0.00,,---,0.00,VWS V14.01,2013-01-15 00:05:00,
2013-01-14 19:10:00,31.1,12.2,0.00,SE,138,3.1,3.1,45,0.00,,---,0.00,VWS V14.01,2013-01-15 00:10:00,
2013-01-14 19:15:00,31.1,12.2,0.00,SSE,154,2.2,2.2,45,0.00,,---,0.00,VWS V14.01,2013-01-15 00:15:00,
2013-01-14 19:20:00,30.9,11.6,0.00,East,89,8.1,8.1,44,0.00,,---,0.00,VWS V14.01,2013-01-15 00:20:00,
2013-01-14 19:25:00,30.7,11.4,0.00,NE,47,2.2,2.2,44,0.00,,---,0.00,VWS V14.01,2013-01-15 00:25:00,
2013-01-14 19:30:00,30.9,11.6,0.00,South,182,0.0,0.0,44,0.00,,---,0.00,VWS V14.01,2013-01-15 00:30:00,
2013-01-14 19:35:00,30.7,11.4,0.00,SW,225,0.0,0.0,44,0.00,,---,0.00,VWS V14.01,2013-01-15 00:35:00,
2013-01-14 19:40:00,30.7,11.4,0.00,WSW,242,6.3,6.3,44,0.00,,---,0.00,VWS V14.01,2013-01-15 00:40:00,
2013-01-14 19:45:00,30.4,11.1,0.00,SE,146,3.1,3.1,44,0.00,,---,0.00,VWS V14.01,2013-01-15 00:45:00,
2013-01-14 19:50:00,30.4,11.1,0.00,SSW,192,2.7,2.7,44,0.00,,---,0.00,VWS V14.01,2013-01-15 00:50:00,
2013-01-14 19:55:00,30.2,11.4,0.00,East,84,0.0,0.0,45,0.00,,---,0.00,VWS V14.01,2013-01-15 00:55:00,
2013-01-14 20:00:00,30.2,11.9,0.00,East,95,2.2,2.2,46,0.00,,---,0.00,VWS V14.01,2013-01-15 01:00:00,
2013-01-14 20:05:00,30.0,11.8,0.00,East,91,0.0,0.0,46,0.00,,---,0.00,VWS V14.01,2013-01-15 01:05:00,
2013-01-14 20:10:00,30.0,11.8,0.00,East,95,7.2,7.2,46,0.00,,---,0.00,VWS V14.01,2013-01-15 01:10:00,
2013-01-14 20:15:00,30.0,11.8,0.00,WSW,237,5.4,5.4,46,0.00,,---,0.00,VWS V14.01,2013-01-15 01:15:00,
2013-01-14 20:20:00,29.8,11.6,0.00,East,86,2.2,2.2,46,0.00,,---,0.00,VWS V14.01,2013-01-15 01:20:00,
2013-01-14 20:25:00,29.8,11.6,0.00,WSW,239,5.4,5.4,46,0.00,,---,0.00,VWS V14.01,2013-01-15 01:25:00,
2013-01-14 20:30:00,29.8,12.1,0.00,WNW,296,0.0,0.0,47,0.00,,---,0.00,VWS V14.01,2013-01-15 01:30:00,
2013-01-14 20:35:00,29.8,12.1,0.00,ENE,72,4.0,4.0,47,0.00,,---,0.00,VWS V14.01,2013-01-15 01:35:00,
2013-01-14 20:40:00,29.7,12.4,0.00,West,275,4.9,4.9,48,0.00,,---,0.00,VWS V14.01,2013-01-15 01:40:00,
2013-01-14 20:45:00,29.7,12.4,0.00,SSE,168,3.6,3.6,48,0.00,,---,0.00,VWS V14.01,2013-01-15 01:45:00,
2013-01-14 20:50:00,29.7,12.4,0.00,SSW,211,0.0,0.0,48,0.00,,---,0.00,VWS V14.01,2013-01-15 01:50:00,
2013-01-14 20:55:00,29.5,12.7,0.00,West,275,2.2,2.2,49,0.00,,---,0.00,VWS V14.01,2013-01-15 01:55:00,
2013-01-14 21:00:00,29.7,12.9,0.00,West,265,0.0,2.7,49,0.00,,---,0.00,VWS V14.01,2013-01-15 02:00:00,
2013-01-14 21:05:00,29.7,12.9,0.00,SSE,150,0.0,0.0,49,0.00,,---,0.00,VWS V14.01,2013-01-15 02:05:00,
2013-01-14 21:10:00,29.5,12.7,0.00,West,265,0.0,0.0,49,0.00,,---,0.00,VWS V14.01,2013-01-15 02:10:00,
2013-01-14 21:15:00,29.7,12.9,0.00,WSW,252,0.0,0.0,49,0.00,,---,0.00,VWS V14.01,2013-01-15 02:15:00,
2013-01-14 21:20:00,29.7,12.9,0.00,WSW,252,0.0,0.0,49,0.00,,---,0.00,VWS V14.01,2013-01-15 02:20:00,
2013-01-14 21:25:00,29.5,12.7,0.00,SE,126,3.1,3.1,49,0.00,,---,0.00,VWS V14.01,2013-01-15 02:25:00,
2013-01-14 21:30:00,29.7,12.9,0.00,SE,136,0.0,0.0,49,0.00,,---,0.00,VWS V14.01,2013-01-15 02:30:00,
2013-01-14 21:35:00,29.7,13.3,0.00,SE,136,0.0,0.0,50,0.00,,---,0.00,VWS V14.01,2013-01-15 02:35:00,
2013-01-14 21:40:00,29.8,13.5,0.00,SE,134,0.0,0.0,50,0.00,,---,0.00,VWS V14.01,2013-01-15 02:40:00,
2013-01-14 21:45:00,29.5,13.1,0.00,SSW,212,0.0,0.0,50,0.00,,---,0.00,VWS V14.01,2013-01-15 02:45:00,
2013-01-14 21:50:00,29.7,13.3,0.00,WNW,298,0.0,0.0,50,0.00,,---,0.00,VWS V14.01,2013-01-15 02:50:00,
2013-01-14 21:55:00,29.5,13.1,0.00,WNW,298,0.0,0.0,50,0.00,,---,0.00,VWS V14.01,2013-01-15 02:55:00,
2013-01-14 22:00:00,29.5,13.1,0.00,ESE,119,0.0,0.0,50,0.00,,---,0.00,VWS V14.01,2013-01-15 03:00:00,
2013-01-14 22:05:00,29.5,13.1,0.00,SW,233,2.7,2.7,50,0.00,,---,0.00,VWS V14.01,2013-01-15 03:05:00,
2013-01-14 22:10:00,29.5,13.1,0.00,SSE,162,0.0,0.0,50,0.00,,---,0.00,VWS V14.01,2013-01-15 03:10:00,
2013-01-14 22:15:00,29.5,13.1,0.00,NNW,338,0.0,0.0,50,0.00,,---,0.00,VWS V14.01,2013-01-15 03:15:00,
2013-01-14 22:20:00,29.5,13.1,0.00,NNW,338,0.0,0.0,50,0.00,,---,0.00,VWS V14.01,2013-01-15 03:20:00,
2013-01-14 22:25:00,29.7,13.8,0.00,SW,233,0.0,0.0,51,0.00,,---,0.00,VWS V14.01,2013-01-15 03:25:00,
2013-01-14 22:30:00,29.3,13.0,0.00,ENE,68,2.7,2.7,50,0.00,,---,0.00,VWS V14.01,2013-01-15 03:30:00,
2013-01-14 22:35:00,29.3,13.4,0.00,SSE,147,0.0,0.0,51,0.00,,---,0.00,VWS V14.01,2013-01-15 03:35:00,
2013-01-14 22:40:00,29.3,13.4,0.00,SSE,160,0.0,0.0,51,0.00,,---,0.00,VWS V14.01,2013-01-15 03:40:00,
2013-01-14 22:45:00,29.3,13.4,0.00,South,171,7.6,7.6,51,0.00,,---,0.00,VWS V14.01,2013-01-15 03:45:00,
2013-01-14 22:50:00,29.3,13.4,0.00,SW,222,3.1,3.1,51,0.00,,---,0.00,VWS V14.01,2013-01-15 03:50:00,
2013-01-14 22:55:00,29.1,13.3,0.00,NW,322,3.1,3.1,51,0.00,,---,0.00,VWS V14.01,2013-01-15 03:55:00,
2013-01-14 23:00:00,29.1,13.3,0.00,SW,231,0.0,0.0,51,0.00,,---,0.00,VWS V14.01,2013-01-15 04:00:00,
2013-01-14 23:05:00,29.5,14.0,0.00,WSW,237,0.0,0.0,52,0.00,,---,0.00,VWS V14.01,2013-01-15 04:05:00,
2013-01-14 23:10:00,29.5,14.0,0.00,SSE,156,2.7,2.7,52,0.00,,---,0.00,VWS V14.01,2013-01-15 04:10:00,
2013-01-14 23:15:00,29.5,14.0,0.00,SSW,205,0.0,0.0,52,0.00,,---,0.00,VWS V14.01,2013-01-15 04:15:00,
2013-01-14 23:20:00,29.5,13.6,0.00,SW,230,0.0,0.0,51,0.00,,---,0.00,VWS V14.01,2013-01-15 04:20:00,
2013-01-14 23:25:00,29.5,13.6,0.00,SE,130,4.0,4.0,51,0.00,,---,0.00,VWS V14.01,2013-01-15 04:25:00,
2013-01-14 23:30:00,29.1,13.3,0.00,SE,130,4.0,4.0,51,0.00,,---,0.00,VWS V14.01,2013-01-15 04:30:00,
2013-01-14 23:35:00,28.9,13.5,0.00,WSW,237,4.0,4.0,52,0.00,,---,0.00,VWS V14.01,2013-01-15 04:35:00,
2013-01-14 23:40:00,29.1,13.7,0.00,SSW,193,0.0,4.0,52,0.00,,---,0.00,VWS V14.01,2013-01-15 04:40:00,
2013-01-14 23:45:00,29.1,13.7,0.00,SSE,164,3.6,3.6,52,0.00,,---,0.00,VWS V14.01,2013-01-15 04:45:00,
2013-01-14 23:50:00,29.1,13.7,0.00,SW,232,0.0,0.0,52,0.00,,---,0.00,VWS V14.01,2013-01-15 04:50:00,
2013-01-14 23:55:00,29.1,14.1,0.00,SSE,152,0.0,0.0,53,0.00,,---,0.00,VWS V14.01,2013-01-15 04:55:00,